Time;durP1;ratioP1;P1;durP2;ratioP2;P2;SDS_P1;SDS_P2;PMS_P1;PMS_P2;Temp;Humidity;BMP_temperature;BMP_pressure;BME280_temperature;BME280_humidity;BME280_pressure;Samples;Min_cycle;Max_cycle;Signal;HPM_P1;HPM_P2
2023/05/12 00:01:13;;;;;;;6.10;3.80;;;;;;;;;;5095998;28;20044;-65
2023/05/12 00:03:39;;;;;;;9.40;3.25;;;;;;;;;;5095610;28;20154;-65
2023/05/12 00:06:06;;;;;;;9.15;4.55;;;;;;;;;;5091099;28;20051;-65
2023/05/12 00:08:32;;;;;;;8.07;4.47;;;;;;;;;;5072303;28;20143;-65
2023/05/12 00:10:58;;;;;;;8.88;4.03;;;;;;;;;;5091052;28;20079;-65
2023/05/12 00:13:26;;;;;;;8.55;4.82;;;;;;;;;;5073110;28;20043;-65
2023/05/12 00:15:54;;;;;;;6.47;3.50;;;;;;;;;;5092878;28;20044;-65
2023/05/12 00:18:20;;;;;;;9.10;3.83;;;;;;;;;;5099360;28;20063;-65
2023/05/12 00:20:47;;;;;;;7.35;3.67;;;;;;;;;;5094962;28;20032;-65
2023/05/12 00:23:13;;;;;;;6.55;3.70;;;;;;;;;;5092481;28;20039;-65
2023/05/12 00:25:39;;;;;;;6.53;3.60;;;;;;;;;;5092506;28;20055;-65
2023/05/12 00:28:05;;;;;;;5.95;3.03;;;;;;;;;;5093863;28;20044;-65
2023/05/12 00:30:31;;;;;;;12.02;3.42;;;;;;;;;;5096266;28;20097;-65
2023/05/12 00:32:58;;;;;;;10.20;3.78;;;;;;;;;;5097759;28;20084;-65
2023/05/12 00:35:24;;;;;;;8.52;3.80;;;;;;;;;;5098153;28;20040;-65
2023/05/12 00:37:50;;;;;;;10.20;4.22;;;;;;;;;;5074159;28;20142;-65
2023/05/12 00:40:16;;;;;;;8.93;5.15;;;;;;;;;;5097459;28;20040;-65
2023/05/12 00:42:43;;;;;;;10.25;4.95;;;;;;;;;;5094262;28;20135;-65
2023/05/12 00:45:10;;;;;;;11.48;6.18;;;;;;;;;;5092828;28;20054;-65
2023/05/12 00:47:36;;;;;;;11.52;6.60;;;;;;;;;;5098190;28;21342;-65
2023/05/12 00:50:03;;;;;;;14.85;7.47;;;;;;;;;;5073174;28;20044;-65
2023/05/12 00:52:30;;;;;;;16.08;6.78;;;;;;;;;;5094760;28;20406;-65
2023/05/12 00:54:56;;;;;;;12.90;8.68;;;;;;;;;;5094549;28;20119;-65
2023/05/12 00:57:25;;;;;;;16.92;8.88;;;;;;;;;;5097599;28;20036;-65
2023/05/12 00:59:51;;;;;;;16.17;7.85;;;;;;;;;;5091212;28;20487;-65
2023/05/12 01:02:17;;;;;;;14.23;8.00;;;;;;;;;;5089086;28;20139;-65
2023/05/12 01:04:44;;;;;;;18.35;8.55;;;;;;;;;;5090421;28;20039;-65
2023/05/12 01:07:14;;;;;;;15.80;8.73;;;;;;;;;;5069022;28;20058;-65
2023/05/12 01:09:40;;;;;;;17.30;8.82;;;;;;;;;;5090060;27;20055;-65
2023/05/12 01:12:06;;;;;;;16.25;9.25;;;;;;;;;;5090586;28;20062;-65
2023/05/12 01:14:33;;;;;;;21.75;9.77;;;;;;;;;;5089078;28;20050;-65
2023/05/12 01:17:02;;;;;;;18.67;9.77;;;;;;;;;;5089419;28;20084;-65
2023/05/12 01:19:33;;;;;;;18.38;9.77;;;;;;;;;;5089234;28;20147;-65
2023/05/12 01:22:00;;;;;;;16.70;10.52;;;;;;;;;;5090865;28;21977;-65
2023/05/12 01:24:28;;;;;;;17.35;10.35;;;;;;;;;;5070648;28;20048;-65
2023/05/12 01:26:55;;;;;;;19.95;11.13;;;;;;;;;;5069919;28;20066;-65
2023/05/12 01:29:21;;;;;;;23.15;11.73;;;;;;;;;;5087987;28;20047;-64
2023/05/12 01:31:48;;;;;;;20.60;12.55;;;;;;;;;;5091274;28;20060;-64
2023/05/12 01:34:17;;;;;;;21.70;13.45;;;;;;;;;;5071369;28;20056;-65
2023/05/12 01:36:43;;;;;;;26.02;14.18;;;;;;;;;;5090443;28;20118;-65
2023/05/12 01:39:10;;;;;;;25.75;14.02;;;;;;;;;;5088401;28;20117;-65
2023/05/12 01:41:36;;;;;;;30.88;14.98;;;;;;;;;;5075233;28;20102;-64
2023/05/12 01:44:02;;;;;;;26.88;16.08;;;;;;;;;;5085769;28;20064;-65
2023/05/12 01:46:29;;;;;;;26.48;16.60;;;;;;;;;;5091878;28;20065;-65
2023/05/12 01:48:55;;;;;;;28.83;15.40;;;;;;;;;;5070414;28;20054;-65
2023/05/12 01:51:21;;;;;;;29.23;15.40;;;;;;;;;;5088532;28;20044;-65
2023/05/12 01:53:47;;;;;;;25.77;14.40;;;;;;;;;;5068119;28;20509;-65
2023/05/12 01:56:13;;;;;;;22.13;14.25;;;;;;;;;;5085752;28;20175;-65
2023/05/12 01:58:39;;;;;;;31.45;14.25;;;;;;;;;;5067893;28;20511;-65
2023/05/12 02:01:05;;;;;;;27.92;13.27;;;;;;;;;;5092175;28;21810;-65
2023/05/12 02:03:32;;;;;;;29.52;13.68;;;;;;;;;;5088766;28;20039;-65
2023/05/12 02:05:58;;;;;;;27.83;13.57;;;;;;;;;;5087491;28;20077;-65
2023/05/12 02:08:24;;;;;;;22.00;13.00;;;;;;;;;;5085700;28;20491;-65
2023/05/12 02:10:50;;;;;;;24.05;12.43;;;;;;;;;;5086087;28;20039;-65
2023/05/12 02:13:16;;;;;;;25.55;13.10;;;;;;;;;;5087055;28;20056;-65
2023/05/12 02:15:42;;;;;;;32.40;14.65;;;;;;;;;;5069539;28;20044;-65
2023/05/12 02:18:08;;;;;;;30.65;14.32;;;;;;;;;;5086254;28;20051;-65
2023/05/12 02:20:35;;;;;;;35.72;14.95;;;;;;;;;;5085438;28;20048;-65
2023/05/12 02:23:01;;;;;;;26.95;15.38;;;;;;;;;;5087056;28;20039;-65
2023/05/12 02:25:28;;;;;;;33.38;16.48;;;;;;;;;;5089513;28;20136;-65
2023/05/12 02:27:54;;;;;;;35.67;17.20;;;;;;;;;;5087183;28;20212;-65
2023/05/12 02:30:20;;;;;;;32.80;15.85;;;;;;;;;;5086148;28;20085;-65
2023/05/12 02:32:46;;;;;;;33.83;16.30;;;;;;;;;;5064434;28;20052;-65
2023/05/12 02:35:12;;;;;;;45.08;17.73;;;;;;;;;;5069144;28;20139;-65
2023/05/12 02:37:38;;;;;;;36.95;17.20;;;;;;;;;;5069396;28;20040;-65
2023/05/12 02:40:05;;;;;;;39.53;17.42;;;;;;;;;;5065185;28;20059;-65
2023/05/12 02:42:34;;;;;;;31.33;17.27;;;;;;;;;;5049846;28;20079;-65
2023/05/12 02:45:01;;;;;;;38.65;17.25;;;;;;;;;;5061516;28;20052;-65
2023/05/12 02:47:30;;;;;;;38.92;18.88;;;;;;;;;;5067664;28;20064;-65
2023/05/12 02:49:56;;;;;;;38.33;17.58;;;;;;;;;;5066571;28;20446;-65
2023/05/12 02:52:22;;;;;;;39.05;17.02;;;;;;;;;;5062738;28;20043;-65
2023/05/12 02:54:49;;;;;;;37.20;18.65;;;;;;;;;;5061409;28;20504;-65
2023/05/12 02:57:15;;;;;;;40.72;20.65;;;;;;;;;;5062310;28;20075;-65
2023/05/12 02:59:41;;;;;;;44.05;19.30;;;;;;;;;;5066353;28;20040;-64
2023/05/12 03:02:07;;;;;;;40.38;20.83;;;;;;;;;;5064400;28;20044;-65
2023/05/12 03:04:34;;;;;;;48.33;22.05;;;;;;;;;;5064864;28;20140;-65
2023/05/12 03:07:00;;;;;;;50.75;24.05;;;;;;;;;;5067430;28;20479;-65
2023/05/12 03:09:26;;;;;;;49.47;23.92;;;;;;;;;;5066250;28;20600;-65
2023/05/12 03:11:52;;;;;;;53.67;24.63;;;;;;;;;;5063863;28;20123;-65
2023/05/12 03:14:18;;;;;;;55.42;26.92;;;;;;;;;;5064001;28;20075;-65
2023/05/12 03:16:44;;;;;;;53.60;25.70;;;;;;;;;;5067257;28;21747;-65
2023/05/12 03:19:11;;;;;;;53.13;26.55;;;;;;;;;;5064159;28;20048;-65
2023/05/12 03:21:37;;;;;;;61.40;26.00;;;;;;;;;;5064385;28;20048;-65
2023/05/12 03:24:03;;;;;;;58.80;28.13;;;;;;;;;;5064001;28;20056;-65
2023/05/12 03:26:30;;;;;;;55.25;25.73;;;;;;;;;;5064727;28;20040;-65
2023/05/12 03:28:56;;;;;;;58.95;26.80;;;;;;;;;;5063265;28;20071;-65
2023/05/12 03:31:22;;;;;;;70.07;27.27;;;;;;;;;;5064983;28;20053;-65
2023/05/12 03:33:48;;;;;;;63.70;27.52;;;;;;;;;;5066727;28;20153;-65
2023/05/12 03:36:14;;;;;;;61.05;26.30;;;;;;;;;;5066507;28;22409;-65
2023/05/12 03:38:40;;;;;;;61.25;27.88;;;;;;;;;;5066351;28;20041;-65
2023/05/12 03:41:07;;;;;;;66.60;28.15;;;;;;;;;;5063628;28;20040;-65
2023/05/12 03:43:34;;;;;;;66.95;29.00;;;;;;;;;;5066271;28;20053;-65
2023/05/12 03:46:00;;;;;;;58.05;26.05;;;;;;;;;;5066541;28;20048;-65
2023/05/12 03:48:27;;;;;;;64.43;28.98;;;;;;;;;;5069448;28;20045;-65
2023/05/12 03:50:53;;;;;;;68.35;30.45;;;;;;;;;;5065842;28;20052;-65
2023/05/12 03:53:19;;;;;;;70.80;28.73;;;;;;;;;;5066110;28;20124;-65
2023/05/12 03:55:45;;;;;;;73.15;30.40;;;;;;;;;;5068868;28;20531;-66
2023/05/12 03:58:11;;;;;;;69.10;28.02;;;;;;;;;;5066316;28;20496;-65
2023/05/12 04:00:38;;;;;;;66.45;29.63;;;;;;;;;;5067011;28;20487;-65
2023/05/12 04:03:04;;;;;;;66.63;28.83;;;;;;;;;;5059815;28;20064;-65
2023/05/12 04:05:30;;;;;;;74.00;29.63;;;;;;;;;;5066082;28;20171;-65
2023/05/12 04:07:56;;;;;;;70.18;30.80;;;;;;;;;;5062723;28;20072;-65
2023/05/12 04:10:22;;;;;;;62.75;28.52;;;;;;;;;;5064651;28;20102;-65
2023/05/12 04:12:48;;;;;;;72.70;31.70;;;;;;;;;;5061739;28;20461;-65
2023/05/12 04:15:14;;;;;;;79.00;30.65;;;;;;;;;;5060793;28;20883;-65
2023/05/12 04:17:41;;;;;;;67.38;29.85;;;;;;;;;;5063256;28;20733;-65
2023/05/12 04:20:07;;;;;;;75.25;30.45;;;;;;;;;;5063781;28;20048;-65
2023/05/12 04:22:33;;;;;;;68.97;30.35;;;;;;;;;;5066112;28;20055;-65
2023/05/12 04:25:00;;;;;;;78.97;31.23;;;;;;;;;;5062448;28;20058;-66
2023/05/12 04:27:26;;;;;;;69.28;29.52;;;;;;;;;;5062931;28;20092;-65
2023/05/12 04:29:52;;;;;;;76.45;31.27;;;;;;;;;;5061133;28;20049;-65
2023/05/12 04:32:18;;;;;;;75.60;32.25;;;;;;;;;;5065105;28;20529;-65
2023/05/12 04:34:44;;;;;;;73.07;32.28;;;;;;;;;;5068036;28;20060;-65
2023/05/12 04:37:10;;;;;;;80.63;32.63;;;;;;;;;;5070870;28;20046;-66
2023/05/12 04:39:36;;;;;;;71.68;31.88;;;;;;;;;;5068769;28;20103;-65
2023/05/12 04:42:03;;;;;;;73.38;30.85;;;;;;;;;;5068019;28;20044;-65
2023/05/12 04:44:29;;;;;;;68.68;29.52;;;;;;;;;;5070222;28;20126;-65
2023/05/12 04:46:56;;;;;;;78.55;31.08;;;;;;;;;;5070853;28;20239;-65
2023/05/12 04:49:23;;;;;;;67.07;31.10;;;;;;;;;;5090603;28;20783;-65
2023/05/12 04:51:49;;;;;;;86.50;32.30;;;;;;;;;;5068506;28;20055;-65
2023/05/12 04:54:15;;;;;;;73.65;30.92;;;;;;;;;;5074633;28;20419;-65
2023/05/12 04:56:41;;;;;;;74.63;31.08;;;;;;;;;;5071480;28;20134;-68
2023/05/12 04:59:07;;;;;;;76.22;31.27;;;;;;;;;;5061229;28;20081;-64
2023/05/12 05:01:33;;;;;;;74.50;30.63;;;;;;;;;;5074654;28;20514;-64
2023/05/12 05:04:00;;;;;;;75.03;32.05;;;;;;;;;;5070310;28;20328;-65
2023/05/12 05:06:27;;;;;;;76.57;30.08;;;;;;;;;;5074706;28;20047;-65
2023/05/12 05:08:54;;;;;;;70.53;30.00;;;;;;;;;;5074244;28;20044;-65
2023/05/12 05:11:21;;;;;;;74.18;31.42;;;;;;;;;;5055784;28;20096;-65
2023/05/12 05:13:47;;;;;;;79.35;29.20;;;;;;;;;;5076043;28;20052;-65
2023/05/12 05:16:13;;;;;;;75.47;31.10;;;;;;;;;;5074923;28;20078;-65
2023/05/12 05:18:44;;;;;;;77.10;31.80;;;;;;;;;;5090357;28;20511;-65
2023/05/12 05:21:12;;;;;;;77.63;30.48;;;;;;;;;;5090498;27;20638;-65
2023/05/12 05:23:39;;;;;;;67.63;31.73;;;;;;;;;;5090842;27;20449;-65
2023/05/12 05:26:06;;;;;;;75.47;31.77;;;;;;;;;;5088771;28;20212;-65
2023/05/12 05:28:32;;;;;;;71.57;29.73;;;;;;;;;;5091038;28;20051;-65
2023/05/12 05:30:58;;;;;;;76.75;32.22;;;;;;;;;;5075778;28;20044;-66
2023/05/12 05:33:24;;;;;;;75.07;31.85;;;;;;;;;;5070614;28;20163;-66
2023/05/12 05:35:51;;;;;;;75.95;28.90;;;;;;;;;;5071305;27;20466;-65
2023/05/12 05:38:17;;;;;;;68.60;29.25;;;;;;;;;;5089206;28;20539;-65
2023/05/12 05:40:43;;;;;;;62.67;29.75;;;;;;;;;;5087219;28;20092;-65
2023/05/12 05:43:10;;;;;;;66.00;28.60;;;;;;;;;;5091452;28;20044;-66
2023/05/12 05:45:36;;;;;;;69.20;30.27;;;;;;;;;;5089199;27;20122;-65
2023/05/12 05:48:02;;;;;;;72.70;31.70;;;;;;;;;;5056740;28;20043;-64
2023/05/12 05:50:28;;;;;;;66.90;30.13;;;;;;;;;;5071943;28;20036;-64
2023/05/12 05:52:54;;;;;;;60.95;29.95;;;;;;;;;;5079854;28;20047;-63
2023/05/12 05:55:21;;;;;;;63.47;31.63;;;;;;;;;;5096709;27;20113;-63
2023/05/12 05:57:47;;;;;;;69.10;31.63;;;;;;;;;;5088803;27;20089;-63
2023/05/12 06:00:14;;;;;;;67.93;30.02;;;;;;;;;;5072448;28;20048;-64
2023/05/12 06:02:40;;;;;;;66.00;31.65;;;;;;;;;;5072613;28;20083;-64
2023/05/12 06:05:07;;;;;;;64.05;31.05;;;;;;;;;;5074461;28;20036;-64
2023/05/12 06:07:33;;;;;;;61.55;31.40;;;;;;;;;;5082060;28;20501;-64
2023/05/12 06:09:59;;;;;;;65.70;30.65;;;;;;;;;;5095204;28;20620;-64
2023/05/12 06:12:26;;;;;;;60.28;28.60;;;;;;;;;;5100628;27;20036;-64
2023/05/12 06:14:52;;;;;;;63.63;29.55;;;;;;;;;;5104179;28;20031;-64
2023/05/12 06:17:18;;;;;;;56.58;30.10;;;;;;;;;;5077839;28;20093;-64
2023/05/12 06:19:46;;;;;;;60.03;30.08;;;;;;;;;;5094909;27;20039;-64
2023/05/12 06:22:13;;;;;;;56.15;27.42;;;;;;;;;;5093827;28;20052;-64
2023/05/12 06:24:40;;;;;;;62.97;29.70;;;;;;;;;;5076921;27;20044;-65
2023/05/12 06:27:06;;;;;;;52.60;27.92;;;;;;;;;;5091054;27;20506;-64
2023/05/12 06:29:32;;;;;;;54.72;27.63;;;;;;;;;;5089596;27;20043;-64
2023/05/12 06:31:58;;;;;;;57.33;28.83;;;;;;;;;;5085269;28;20187;-63
2023/05/12 06:34:25;;;;;;;53.03;26.85;;;;;;;;;;5092709;27;20090;-64
2023/05/12 06:36:51;;;;;;;49.75;27.35;;;;;;;;;;5091850;27;20112;-63
2023/05/12 06:39:17;;;;;;;51.53;26.73;;;;;;;;;;5094251;28;20068;-63
2023/05/12 06:41:43;;;;;;;48.92;25.98;;;;;;;;;;5094232;28;20058;-64
2023/05/12 06:44:11;;;;;;;47.83;26.80;;;;;;;;;;5089106;28;20090;-64
2023/05/12 06:46:39;;;;;;;47.15;26.05;;;;;;;;;;5094698;27;20048;-63
2023/05/12 06:49:05;;;;;;;47.22;27.25;;;;;;;;;;5093651;28;20691;-64
2023/05/12 06:51:32;;;;;;;45.03;26.65;;;;;;;;;;5095155;28;20395;-63
2023/05/12 06:53:59;;;;;;;44.65;26.90;;;;;;;;;;5075113;28;21582;-63
2023/05/12 06:56:25;;;;;;;46.35;25.58;;;;;;;;;;5072779;28;20047;-64
2023/05/12 06:58:51;;;;;;;45.72;26.88;;;;;;;;;;5069381;28;20039;-63
2023/05/12 07:01:18;;;;;;;50.05;26.52;;;;;;;;;;5094914;28;20048;-63
2023/05/12 07:03:44;;;;;;;46.53;27.25;;;;;;;;;;5100766;28;20036;-63
2023/05/12 07:06:10;;;;;;;44.50;25.38;;;;;;;;;;5108374;28;20047;-64
2023/05/12 07:08:36;;;;;;;47.65;26.30;;;;;;;;;;5100368;28;20051;-63
2023/05/12 07:11:02;;;;;;;42.47;24.90;;;;;;;;;;5091375;28;20112;-63
2023/05/12 07:13:28;;;;;;;47.63;26.95;;;;;;;;;;5095389;28;20043;-63
2023/05/12 07:15:54;;;;;;;50.53;26.60;;;;;;;;;;5092931;28;20040;-63
2023/05/12 07:18:21;;;;;;;46.90;27.83;;;;;;;;;;5094409;28;20122;-63
2023/05/12 07:20:47;;;;;;;42.45;26.02;;;;;;;;;;5076344;28;20152;-63
2023/05/12 07:23:14;;;;;;;45.65;26.52;;;;;;;;;;5093162;27;20056;-63
2023/05/12 07:25:40;;;;;;;46.30;27.65;;;;;;;;;;5083553;28;20048;-63
2023/05/12 07:28:06;;;;;;;48.30;26.25;;;;;;;;;;5100708;28;20051;-63
2023/05/12 07:30:32;;;;;;;41.92;26.42;;;;;;;;;;5077639;28;20488;-63
2023/05/12 07:33:00;;;;;;;47.95;28.15;;;;;;;;;;5076742;28;20172;-63
2023/05/12 07:35:27;;;;;;;41.20;26.30;;;;;;;;;;5076836;28;20052;-63
2023/05/12 07:37:53;;;;;;;39.45;25.95;;;;;;;;;;5096663;28;20440;-63
2023/05/12 07:40:19;;;;;;;39.33;25.88;;;;;;;;;;5078399;28;20047;-65
2023/05/12 07:42:45;;;;;;;42.60;26.85;;;;;;;;;;5057854;28;20130;-64
2023/05/12 07:45:11;;;;;;;38.83;24.98;;;;;;;;;;5093816;28;20044;-64
2023/05/12 07:47:37;;;;;;;42.20;27.38;;;;;;;;;;5092625;28;20063;-63
2023/05/12 07:50:04;;;;;;;37.95;27.20;;;;;;;;;;5094033;28;20070;-64
2023/05/12 07:52:30;;;;;;;40.65;28.33;;;;;;;;;;5092807;28;20083;-64
2023/05/12 07:54:57;;;;;;;48.47;28.98;;;;;;;;;;5092987;28;20116;-63
2023/05/12 07:57:23;;;;;;;44.00;29.10;;;;;;;;;;5095733;28;20078;-64
2023/05/12 07:59:49;;;;;;;46.60;28.17;;;;;;;;;;5092650;28;20092;-63
2023/05/12 08:02:16;;;;;;;44.50;28.65;;;;;;;;;;5093201;28;20060;-64
2023/05/12 08:04:42;;;;;;;42.17;27.30;;;;;;;;;;5095271;28;20031;-64
2023/05/12 08:07:08;;;;;;;43.30;27.50;;;;;;;;;;5071213;28;20068;-63
2023/05/12 08:09:35;;;;;;;47.45;29.38;;;;;;;;;;5100382;27;20402;-63
2023/05/12 08:12:01;;;;;;;43.25;28.83;;;;;;;;;;5100995;28;20570;-64
2023/05/12 08:14:27;;;;;;;43.55;26.83;;;;;;;;;;5099825;28;20035;-64
2023/05/12 08:16:53;;;;;;;40.85;29.60;;;;;;;;;;5082260;28;20047;-64
2023/05/12 08:19:19;;;;;;;41.92;27.58;;;;;;;;;;5103002;28;20039;-63
2023/05/12 08:21:45;;;;;;;39.05;27.27;;;;;;;;;;5083014;28;20047;-63
2023/05/12 08:24:11;;;;;;;38.65;28.38;;;;;;;;;;5100664;27;20135;-64
2023/05/12 08:26:37;;;;;;;40.28;28.83;;;;;;;;;;5081418;28;20047;-64
2023/05/12 08:29:05;;;;;;;37.47;25.92;;;;;;;;;;5100480;28;20055;-64
2023/05/12 08:31:31;;;;;;;41.47;29.35;;;;;;;;;;5100564;28;20527;-64
2023/05/12 08:33:58;;;;;;;38.40;28.65;;;;;;;;;;5099750;27;20056;-64
2023/05/12 08:36:24;;;;;;;39.10;27.98;;;;;;;;;;5100180;27;20065;-64
2023/05/12 08:38:50;;;;;;;36.15;25.88;;;;;;;;;;5082450;28;20048;-64
2023/05/12 08:41:20;;;;;;;36.63;25.05;;;;;;;;;;5083433;28;20126;-64
2023/05/12 08:43:50;;;;;;;33.88;25.88;;;;;;;;;;5080258;28;20131;-64
2023/05/12 08:46:17;;;;;;;32.40;25.60;;;;;;;;;;5100932;28;20040;-64
2023/05/12 08:48:45;;;;;;;33.85;24.88;;;;;;;;;;5098857;28;20063;-64
2023/05/12 08:51:12;;;;;;;35.78;25.48;;;;;;;;;;5081716;28;20048;-64
2023/05/12 08:53:39;;;;;;;31.45;25.05;;;;;;;;;;5100533;28;20494;-64
2023/05/12 08:56:06;;;;;;;34.53;27.45;;;;;;;;;;5081415;28;20051;-64
2023/05/12 08:58:33;;;;;;;35.33;26.67;;;;;;;;;;5083795;28;20083;-64
2023/05/12 09:01:00;;;;;;;34.63;25.25;;;;;;;;;;5079278;28;20163;-64
2023/05/12 09:03:27;;;;;;;29.75;25.17;;;;;;;;;;5100262;28;20044;-64
2023/05/12 09:05:55;;;;;;;33.83;25.25;;;;;;;;;;5080569;28;20052;-64
2023/05/12 09:08:21;;;;;;;33.03;24.88;;;;;;;;;;5080512;28;20047;-64
2023/05/12 09:10:48;;;;;;;35.05;25.58;;;;;;;;;;5098323;28;20028;-64
2023/05/12 09:13:15;;;;;;;29.05;25.15;;;;;;;;;;5080922;28;20101;-64
2023/05/12 09:15:43;;;;;;;30.45;24.50;;;;;;;;;;5098863;28;20074;-64
2023/05/12 09:18:09;;;;;;;30.25;25.40;;;;;;;;;;5079024;28;20077;-64
2023/05/12 09:20:36;;;;;;;36.13;26.02;;;;;;;;;;5098737;28;20056;-65
2023/05/12 09:23:15;;;;;;;26.80;23.15;;;;;;;;;;5100747;28;20035;-64
2023/05/12 09:25:41;;;;;;;25.35;21.95;;;;;;;;;;5078424;28;20406;-64
2023/05/12 09:28:08;;;;;;;25.27;21.30;;;;;;;;;;5098578;28;20050;-65
2023/05/12 09:30:37;;;;;;;27.10;21.05;;;;;;;;;;5098817;28;20143;-64
2023/05/12 09:33:07;;;;;;;29.33;24.27;;;;;;;;;;5079491;28;20063;-65
2023/05/12 09:35:38;;;;;;;26.85;21.98;;;;;;;;;;5080064;28;20124;-65
2023/05/12 09:38:06;;;;;;;25.00;21.50;;;;;;;;;;5082127;28;20056;-64
2023/05/12 09:40:32;;;;;;;24.42;20.45;;;;;;;;;;5074785;28;20084;-64
2023/05/12 09:42:58;;;;;;;24.60;19.23;;;;;;;;;;5094302;28;20120;-64
2023/05/12 09:45:25;;;;;;;24.85;19.63;;;;;;;;;;5092643;27;20032;-65
2023/05/12 09:47:51;;;;;;;20.63;17.23;;;;;;;;;;5094164;28;20394;-65
2023/05/12 09:50:18;;;;;;;20.33;17.38;;;;;;;;;;5096899;28;20036;-65
2023/05/12 09:52:44;;;;;;;18.80;15.02;;;;;;;;;;5073569;28;20483;-65
2023/05/12 09:55:11;;;;;;;20.63;15.27;;;;;;;;;;5073133;28;20403;-65
2023/05/12 09:57:40;;;;;;;17.30;14.63;;;;;;;;;;5070484;28;20097;-65
2023/05/12 10:00:12;;;;;;;16.73;13.68;;;;;;;;;;5077029;28;20142;-66
2023/05/12 10:02:41;;;;;;;18.30;14.80;;;;;;;;;;5073333;28;20404;-65
2023/05/12 10:05:08;;;;;;;16.17;14.27;;;;;;;;;;5095024;27;20051;-66
2023/05/12 10:07:35;;;;;;;16.20;11.55;;;;;;;;;;5073276;28;20266;-65
2023/05/12 10:10:04;;;;;;;13.57;12.10;;;;;;;;;;5072673;28;20040;-66
2023/05/12 10:12:30;;;;;;;13.00;11.52;;;;;;;;;;5094467;28;20172;-66
2023/05/12 10:14:57;;;;;;;13.30;11.13;;;;;;;;;;5072669;28;20036;-65
2023/05/12 10:17:24;;;;;;;13.88;11.45;;;;;;;;;;5092874;28;20383;-66
2023/05/12 10:19:52;;;;;;;14.90;10.52;;;;;;;;;;5072852;28;20051;-66
2023/05/12 10:22:19;;;;;;;12.77;10.60;;;;;;;;;;5069970;27;20046;-65
2023/05/12 10:24:45;;;;;;;11.98;10.38;;;;;;;;;;5093636;28;20619;-66
2023/05/12 10:27:13;;;;;;;12.50;9.02;;;;;;;;;;5094409;28;20051;-66
2023/05/12 10:29:39;;;;;;;11.43;9.15;;;;;;;;;;5091830;27;20516;-66
2023/05/12 10:32:06;;;;;;;14.45;12.48;;;;;;;;;;5090014;28;20051;-66
2023/05/12 10:34:33;;;;;;;17.25;13.20;;;;;;;;;;5091315;27;20486;-66
2023/05/12 10:36:59;;;;;;;17.88;14.20;;;;;;;;;;5089710;27;20643;-66
2023/05/12 10:39:29;;;;;;;14.52;11.93;;;;;;;;;;5071306;28;20083;-65
2023/05/12 10:42:07;;;;;;;16.13;11.30;;;;;;;;;;5069007;28;20065;-65
2023/05/12 10:44:34;;;;;;;14.02;12.43;;;;;;;;;;5072356;28;20048;-65
2023/05/12 10:47:00;;;;;;;17.70;14.80;;;;;;;;;;5091914;28;20072;-65
2023/05/12 10:49:32;;;;;;;19.10;14.10;;;;;;;;;;5092232;28;20065;-65
2023/05/12 10:51:59;;;;;;;14.10;12.00;;;;;;;;;;5092442;28;20047;-65
2023/05/12 10:54:25;;;;;;;16.45;14.75;;;;;;;;;;5094769;27;20102;-65
2023/05/12 10:56:53;;;;;;;15.27;13.05;;;;;;;;;;5092675;27;20040;-65
2023/05/12 10:59:21;;;;;;;16.23;14.52;;;;;;;;;;5085606;28;20048;-66
2023/05/12 11:02:01;;;;;;;16.83;13.65;;;;;;;;;;5068458;28;20682;-66
2023/05/12 11:04:39;;;;;;;15.20;12.25;;;;;;;;;;5086241;28;20040;-66
2023/05/12 11:07:06;;;;;;;16.67;12.77;;;;;;;;;;5068435;28;20170;-65
2023/05/12 11:09:34;;;;;;;14.70;12.63;;;;;;;;;;5083248;28;20127;-66
2023/05/12 11:12:01;;;;;;;13.60;11.25;;;;;;;;;;5087667;27;20039;-66
2023/05/12 11:14:27;;;;;;;18.23;12.07;;;;;;;;;;5071505;28;20102;-66
2023/05/12 11:16:53;;;;;;;17.00;12.00;;;;;;;;;;5071588;28;20040;-66
2023/05/12 11:19:19;;;;;;;15.05;12.38;;;;;;;;;;5073209;28;20047;-66
2023/05/12 11:21:46;;;;;;;13.77;11.57;;;;;;;;;;5089239;27;20035;-66
2023/05/12 11:24:12;;;;;;;14.32;11.50;;;;;;;;;;5072347;28;20044;-65
2023/05/12 11:26:40;;;;;;;14.07;11.90;;;;;;;;;;5071351;28;20645;-65
2023/05/12 11:29:06;;;;;;;13.55;10.10;;;;;;;;;;5070139;28;20530;-66
2023/05/12 11:31:32;;;;;;;12.45;9.77;;;;;;;;;;5070947;28;20067;-66
2023/05/12 11:34:03;;;;;;;12.57;9.93;;;;;;;;;;5094320;27;20124;-66
2023/05/12 11:36:35;;;;;;;11.65;8.95;;;;;;;;;;5093446;28;20053;-66
2023/05/12 11:39:02;;;;;;;13.70;10.57;;;;;;;;;;5072870;28;20076;-66
2023/05/12 11:41:28;;;;;;;10.48;8.90;;;;;;;;;;5057883;28;20077;-66
2023/05/12 11:43:54;;;;;;;12.40;9.02;;;;;;;;;;5088681;28;20036;-66
2023/05/12 11:46:30;;;;;;;10.85;8.63;;;;;;;;;;5074100;28;20047;-66
2023/05/12 11:48:58;;;;;;;11.93;9.88;;;;;;;;;;5093606;28;20043;-66
2023/05/12 11:51:24;;;;;;;10.90;8.95;;;;;;;;;;5095839;28;20928;-66
2023/05/12 11:53:52;;;;;;;13.68;10.82;;;;;;;;;;5072124;28;20058;-66
2023/05/12 11:56:19;;;;;;;12.90;9.95;;;;;;;;;;5072670;28;20055;-65
2023/05/12 11:58:54;;;;;;;11.98;10.07;;;;;;;;;;5089410;28;20055;-66
2023/05/12 12:01:20;;;;;;;11.50;9.93;;;;;;;;;;5090384;28;20031;-65
2023/05/12 12:03:47;;;;;;;12.80;10.85;;;;;;;;;;5090922;28;20059;-66
2023/05/12 12:06:14;;;;;;;11.68;10.27;;;;;;;;;;5091776;28;20047;-66
2023/05/12 12:08:50;;;;;;;11.55;9.32;;;;;;;;;;5070504;28;20118;-64
2023/05/12 12:11:18;;;;;;;16.20;11.32;;;;;;;;;;5094597;28;20140;-65
2023/05/12 12:13:51;;;;;;;14.05;10.77;;;;;;;;;;5088813;28;20044;-65
2023/05/12 12:16:17;;;;;;;;;;;;;;;;;;5073730;28;20108;-65
2023/05/12 12:18:43;;;;;;;13.13;11.20;;;;;;;;;;5091125;28;19927;-65
2023/05/12 12:21:10;;;;;;;11.50;9.48;;;;;;;;;;5087289;28;20040;-65
2023/05/12 12:23:36;;;;;;;11.88;10.00;;;;;;;;;;5095660;28;20043;-65
2023/05/12 12:26:02;;;;;;;15.70;10.18;;;;;;;;;;5076880;28;20048;-64
2023/05/12 12:28:29;;;;;;;14.18;10.52;;;;;;;;;;5089969;28;20411;-65
2023/05/12 12:30:55;;;;;;;12.13;10.35;;;;;;;;;;5088866;28;20044;-65
2023/05/12 12:33:22;;;;;;;14.52;10.32;;;;;;;;;;5087326;28;20469;-65
2023/05/12 12:35:48;;;;;;;13.50;9.43;;;;;;;;;;5067635;28;21365;-65
2023/05/12 12:38:14;;;;;;;12.65;11.23;;;;;;;;;;5088171;28;20056;-65
2023/05/12 12:40:41;;;;;;;13.43;11.63;;;;;;;;;;5074127;28;20040;-65
2023/05/12 12:43:07;;;;;;;13.15;10.32;;;;;;;;;;5088101;28;20040;-66
2023/05/12 12:45:33;;;;;;;13.00;8.93;;;;;;;;;;5068726;28;20225;-65
2023/05/12 12:47:59;;;;;;;11.98;9.50;;;;;;;;;;5071335;28;20044;-72
2023/05/12 12:50:26;;;;;;;13.55;10.20;;;;;;;;;;5070172;28;20488;-66
2023/05/12 12:52:52;;;;;;;15.70;11.18;;;;;;;;;;5089893;28;20054;-66
2023/05/12 12:55:18;;;;;;;14.90;11.68;;;;;;;;;;5091561;27;20040;-65
2023/05/12 12:57:44;;;;;;;13.43;10.73;;;;;;;;;;5078355;28;20130;-66
2023/05/12 13:00:11;;;;;;;16.90;10.05;;;;;;;;;;5095890;27;20048;-66
2023/05/12 13:02:37;;;;;;;12.80;11.48;;;;;;;;;;5091952;27;20047;-66
2023/05/12 13:05:05;;;;;;;12.73;10.82;;;;;;;;;;5075266;28;20166;-66
2023/05/12 13:07:32;;;;;;;14.02;11.35;;;;;;;;;;5094510;27;20036;-66
2023/05/12 13:09:59;;;;;;;13.13;10.85;;;;;;;;;;5072374;27;20048;-66
2023/05/12 13:12:27;;;;;;;12.10;9.95;;;;;;;;;;5076284;28;20040;-66
2023/05/12 13:14:53;;;;;;;12.40;10.73;;;;;;;;;;5075727;27;20093;-66
2023/05/12 13:17:19;;;;;;;13.50;11.57;;;;;;;;;;5071121;28;20048;-66
2023/05/12 13:19:45;;;;;;;12.57;10.38;;;;;;;;;;5083011;28;20058;-66
2023/05/12 13:22:11;;;;;;;12.02;10.52;;;;;;;;;;5074657;28;20120;-66
2023/05/12 13:24:37;;;;;;;11.05;9.73;;;;;;;;;;5074939;28;20036;-66
2023/05/12 13:27:07;;;;;;;11.88;9.43;;;;;;;;;;5077946;28;20122;-66
2023/05/12 13:29:34;;;;;;;12.20;8.98;;;;;;;;;;5076951;28;20048;-66
2023/05/12 13:32:00;;;;;;;10.20;8.80;;;;;;;;;;5089329;27;20044;-66
2023/05/12 13:34:26;;;;;;;13.70;9.45;;;;;;;;;;5093478;28;20410;-66
2023/05/12 13:36:52;;;;;;;10.35;8.35;;;;;;;;;;5090489;27;20032;-66
2023/05/12 13:39:18;;;;;;;13.15;8.60;;;;;;;;;;5097001;27;21267;-66
2023/05/12 13:41:44;;;;;;;10.85;8.25;;;;;;;;;;5093375;28;20046;-66
2023/05/12 13:44:11;;;;;;;8.70;7.30;;;;;;;;;;5078588;28;20143;-66
2023/05/12 13:46:37;;;;;;;9.20;7.53;;;;;;;;;;5072501;28;20147;-66
2023/05/12 13:49:03;;;;;;;11.90;7.70;;;;;;;;;;5093647;28;20035;-66
2023/05/12 13:51:31;;;;;;;9.65;7.70;;;;;;;;;;5092991;28;20123;-66
2023/05/12 13:53:57;;;;;;;12.40;7.85;;;;;;;;;;5055969;27;20048;-66
2023/05/12 13:56:23;;;;;;;11.02;7.68;;;;;;;;;;5081280;28;20040;-66
2023/05/12 13:58:49;;;;;;;11.65;7.47;;;;;;;;;;5083165;28;20040;-66
2023/05/12 14:01:16;;;;;;;9.10;6.72;;;;;;;;;;5087240;28;20040;-64
2023/05/12 14:03:42;;;;;;;8.02;5.80;;;;;;;;;;5075125;28;20440;-64
2023/05/12 14:06:08;;;;;;;11.45;7.45;;;;;;;;;;5073551;28;20044;-64
2023/05/12 14:08:34;;;;;;;10.32;7.60;;;;;;;;;;5094392;27;20055;-64
2023/05/12 14:11:00;;;;;;;7.68;6.50;;;;;;;;;;5089564;27;20063;-64
2023/05/12 14:13:26;;;;;;;9.07;6.47;;;;;;;;;;5091376;28;20055;-64
2023/05/12 14:15:53;;;;;;;9.65;7.40;;;;;;;;;;5057884;28;20109;-64
2023/05/12 14:18:19;;;;;;;9.48;7.88;;;;;;;;;;5072770;28;20054;-64